Time;durP1;ratioP1;P1;durP2;ratioP2;P2;SDS_P1;SDS_P2;PMS_P1;PMS_P2;Temp;Humidity;BMP_temperature;BMP_pressure;BME280_temperature;BME280_humidity;BME280_pressure;Samples;Min_cycle;Max_cycle;Signal;HPM_P1;HPM_P2
2022/01/09 00:00:37;;;;;;;82.08;38.38;;;;;;;-0.98;73.65;99482.03;1763264;81;25602;-74
2022/01/09 00:03:06;;;;;;;83.60;37.17;;;;;;;-1.01;73.57;99480.41;1763349;81;25413;-73
2022/01/09 00:05:32;;;;;;;82.33;38.05;;;;;;;-1.01;73.64;99485.72;1763739;81;25146;-73
2022/01/09 00:07:59;;;;;;;80.53;35.40;;;;;;;-1.03;73.69;99481.98;1763309;80;27313;-72
2022/01/09 00:10:31;;;;;;;84.42;37.23;;;;;;;-1.02;73.77;99478.80;1763194;81;25634;-72
2022/01/09 00:12:58;;;;;;;75.52;36.80;;;;;;;-1.02;73.75;99472.98;1763309;81;25403;-72
2022/01/09 00:15:25;;;;;;;99.72;46.33;;;;;;;-1.02;73.65;99471.66;1733337;81;27119;-72
2022/01/09 00:17:52;;;;;;;98.90;43.95;;;;;;;-1.03;73.70;99466.59;1733663;81;25451;-73
2022/01/09 00:20:18;;;;;;;77.60;38.63;;;;;;;-1.04;73.82;99463.15;1763283;81;27314;-73
2022/01/09 00:22:48;;;;;;;65.37;34.48;;;;;;;-1.02;73.83;99462.36;1763195;81;25590;-73
2022/01/09 00:25:18;;;;;;;76.42;35.40;;;;;;;-1.02;73.83;99460.22;1763420;81;25523;-73
2022/01/09 00:27:46;;;;;;;71.62;34.00;;;;;;;-1.01;73.89;99462.63;1763271;81;25626;-73
2022/01/09 00:30:15;;;;;;;85.30;36.53;;;;;;;-1.01;73.75;99465.27;1763284;81;25667;-73
2022/01/09 00:32:42;;;;;;;;;;;;;;;-1.01;73.75;99453.86;1765847;81;27374;-73
2022/01/09 00:35:10;;;;;;;69.22;33.63;;;;;;;-1.01;73.78;99452.00;1763359;81;25621;-72
2022/01/09 00:37:38;;;;;;;75.32;35.00;;;;;;;-1.02;73.86;99449.09;1763478;81;25597;-73
2022/01/09 00:40:07;;;;;;;77.25;33.67;;;;;;;-1.00;73.89;99447.52;1766437;80;26341;-73
2022/01/09 00:42:34;;;;;;;70.57;34.27;;;;;;;-0.99;73.82;99445.94;1794853;79;25625;-73
2022/01/09 00:45:04;;;;;;;74.75;33.70;;;;;;;-0.98;73.76;99435.58;1794608;80;28104;-73
2022/01/09 00:47:30;;;;;;;76.75;35.48;;;;;;;-0.96;73.77;99437.98;1794646;80;25522;-73
2022/01/09 00:49:58;;;;;;;72.45;33.83;;;;;;;-0.96;74.07;99434.00;1794671;79;25432;-73
2022/01/09 00:52:24;;;;;;;71.35;33.85;;;;;;;-0.97;73.80;99443.83;1794577;80;25607;-73
2022/01/09 00:54:51;;;;;;;75.35;33.38;;;;;;;-0.97;73.72;99444.33;1794643;80;25391;-73
2022/01/09 00:57:17;;;;;;;75.25;33.73;;;;;;;-1.00;73.73;99436.36;1794627;80;27329;-73
2022/01/09 00:59:44;;;;;;;70.65;33.38;;;;;;;-1.01;73.78;99433.95;1794576;80;25444;-73
2022/01/09 01:02:12;;;;;;;76.55;35.35;;;;;;;-1.00;73.88;99431.05;1794662;80;25547;-73
2022/01/09 01:04:39;;;;;;;75.62;34.35;;;;;;;-1.01;73.89;99428.64;1763771;80;25613;-73
2022/01/09 01:07:07;;;;;;;73.02;33.92;;;;;;;-1.00;74.00;99419.64;1794843;80;25612;-73
2022/01/09 01:09:33;;;;;;;70.75;33.40;;;;;;;-0.99;73.94;99423.88;1763876;80;27896;-73
2022/01/09 01:12:02;;;;;;;69.97;33.18;;;;;;;-1.02;73.93;99412.43;1794587;80;25635;-73
2022/01/09 01:14:31;;;;;;;68.22;32.70;;;;;;;-1.00;73.97;99418.31;1794646;79;25701;-73
2022/01/09 01:16:58;;;;;;;79.55;35.30;;;;;;;-1.00;74.00;99416.45;1794853;80;26163;-73
2022/01/09 01:19:27;;;;;;;72.87;35.52;;;;;;;-1.00;74.05;99409.02;1794661;80;25601;-73
2022/01/09 01:21:54;;;;;;;70.37;34.58;;;;;;;-1.02;74.01;99400.48;1794764;80;27325;-73
2022/01/09 01:24:22;;;;;;;73.25;34.88;;;;;;;-1.00;74.11;99405.83;1794580;80;25648;-73
2022/01/09 01:26:49;;;;;;;78.37;35.92;;;;;;;-0.99;74.26;99396.00;1794743;80;25553;-73
2022/01/09 01:29:16;;;;;;;77.05;35.30;;;;;;;-0.99;74.16;99392.02;1794917;80;25736;-73
2022/01/09 01:31:43;;;;;;;74.85;34.08;;;;;;;-0.97;74.29;99392.56;1794949;80;25553;-73
2022/01/09 01:34:12;;;;;;;75.45;34.88;;;;;;;-0.96;74.26;99384.88;1795137;79;27425;-73
2022/01/09 01:36:39;;;;;;;76.37;34.13;;;;;;;-0.98;74.12;99376.37;1795200;79;25650;-73
2022/01/09 01:39:05;;;;;;;78.55;35.28;;;;;;;-0.97;74.07;99381.94;1794948;80;25470;-73
2022/01/09 01:41:32;;;;;;;75.05;35.33;;;;;;;-1.01;74.19;99375.55;1763957;80;25646;-73
2022/01/09 01:43:58;;;;;;;73.35;34.83;;;;;;;-1.00;74.19;99377.17;1794979;79;25635;-73
2022/01/09 01:46:25;;;;;;;75.52;34.50;;;;;;;-1.03;74.20;99378.46;1794915;80;27337;-73
2022/01/09 01:48:51;;;;;;;71.53;33.05;;;;;;;-1.02;74.22;99377.92;1794822;80;25532;-74
2022/01/09 01:51:20;;;;;;;75.05;34.27;;;;;;;-1.04;74.30;99376.06;1794915;80;25663;-74
2022/01/09 01:53:48;;;;;;;69.77;33.13;;;;;;;-1.06;74.33;99373.66;1794985;80;26195;-74
2022/01/09 01:56:19;;;;;;;73.20;33.88;;;;;;;-1.06;74.30;99368.34;1794882;80;25384;-74
2022/01/09 01:58:42;;;;;;;70.92;34.53;;;;;;;-1.08;74.38;99371.79;1735561;81;27432;-74
2022/01/09 02:01:09;;;;;;;74.20;34.40;;;;;;;-1.07;74.54;99367.27;1735593;81;25670;-74
2022/01/09 02:03:36;;;;;;;69.90;33.08;;;;;;;-1.07;74.52;99375.23;1767910;81;25538;-74
2022/01/09 02:06:03;;;;;;;73.95;31.97;;;;;;;-1.08;74.59;99369.13;1734911;81;26113;-74
2022/01/09 02:08:32;;;;;;;67.60;31.60;;;;;;;-1.07;74.59;99368.09;1767909;79;25554;-74
2022/01/09 02:10:58;;;;;;;67.03;32.13;;;;;;;-1.08;74.55;99378.42;1768059;81;28023;-73
2022/01/09 02:13:25;;;;;;;68.12;32.58;;;;;;;-1.11;74.62;99364.86;1767748;81;25191;-73
2022/01/09 02:15:56;;;;;;;70.70;32.95;;;;;;;-1.11;74.57;99362.21;1767849;81;25541;-73
2022/01/09 02:18:21;;;;;;;75.75;32.42;;;;;;;-1.14;74.63;99360.87;1767159;81;25617;-74
2022/01/09 02:20:50;;;;;;;66.65;32.00;;;;;;;-1.14;74.83;99363.00;1768003;81;25553;-74
2022/01/09 02:23:18;;;;;;;68.72;30.25;;;;;;;-1.16;74.83;99358.48;1767881;81;27316;-74
2022/01/09 02:25:46;;;;;;;66.12;30.72;;;;;;;-1.17;74.83;99362.17;1767695;80;25620;-74
2022/01/09 02:28:16;;;;;;;70.00;31.27;;;;;;;-1.18;74.87;99357.91;1767800;81;25637;-74
2022/01/09 02:30:44;;;;;;;73.10;31.80;;;;;;;-1.17;74.98;99346.78;1767875;81;31705;-73
2022/01/09 02:33:17;;;;;;;65.15;32.42;;;;;;;-1.16;75.01;99347.86;1767935;81;25570;-73
2022/01/09 02:35:43;;;;;;;64.87;30.52;;;;;;;-1.17;75.03;99340.15;1768004;81;27438;-72
2022/01/09 02:38:10;;;;;;;73.10;33.88;;;;;;;-1.17;75.08;99341.48;1767641;81;25406;-73
2022/01/09 02:40:37;;;;;;;72.00;33.02;;;;;;;-1.17;75.12;99333.52;1767661;81;25386;-73
2022/01/09 02:43:04;;;;;;;64.75;31.00;;;;;;;-1.18;75.15;99333.23;1767628;81;25608;-73
2022/01/09 02:45:30;;;;;;;70.08;31.10;;;;;;;-1.17;75.22;99323.69;1767664;81;25483;-73
2022/01/09 02:47:59;;;;;;;66.67;31.07;;;;;;;-1.16;75.28;99320.00;1767626;81;27919;-73
2022/01/09 02:52:57;;;;;;;65.47;30.95;;;;;;;-1.16;75.27;99316.02;1760734;79;25674;-73
2022/01/09 02:55:24;;;;;;;68.92;30.52;;;;;;;-1.16;75.32;99310.70;1767448;80;25629;-73
2022/01/09 02:57:59;;;;;;;64.85;30.35;;;;;;;-1.16;75.36;99308.56;1767793;81;25399;-74
2022/01/09 03:00:30;;;;;;;60.40;30.02;;;;;;;-1.13;75.42;99309.38;1767652;81;27370;-73
2022/01/09 03:02:58;;;;;;;60.92;29.95;;;;;;;-1.15;75.41;99296.90;1767481;81;25570;-73
2022/01/09 03:05:27;;;;;;;67.15;31.20;;;;;;;-1.16;75.42;99288.15;1735393;82;25503;-73
2022/01/09 03:07:54;;;;;;;62.58;29.98;;;;;;;-1.15;75.43;99294.25;1735737;80;25524;-72
2022/01/09 03:10:22;;;;;;;58.13;29.77;;;;;;;-1.15;75.50;99295.03;1767524;81;25550;-72
2022/01/09 03:12:51;;;;;;;64.82;31.07;;;;;;;-1.13;75.60;99295.58;1767491;81;27505;-73
2022/01/09 03:15:18;;;;;;;68.07;32.45;;;;;;;-1.09;75.59;99295.06;1767539;81;25635;-73
2022/01/09 03:17:45;;;;;;;65.97;30.10;;;;;;;-1.08;75.45;99290.05;1767427;81;25411;-73
2022/01/09 03:20:17;;;;;;;65.65;30.30;;;;;;;-1.08;75.51;99290.84;1768022;81;25753;-73
2022/01/09 03:22:46;;;;;;;66.07;30.72;;;;;;;-1.07;75.57;99286.31;1767513;81;25485;-73
2022/01/09 03:25:13;;;;;;;62.20;31.97;;;;;;;-1.05;75.53;99290.86;1767583;80;27922;-73
2022/01/09 03:27:42;;;;;;;68.42;30.72;;;;;;;-1.04;75.53;99279.99;1767416;80;25542;-73
2022/01/09 03:30:10;;;;;;;65.72;31.42;;;;;;;-1.03;75.55;99282.11;1734437;81;28602;-73
2022/01/09 03:32:40;;;;;;;67.00;30.97;;;;;;;-1.00;75.62;99285.59;1767410;81;25618;-73
2022/01/09 03:35:14;;;;;;;59.63;30.48;;;;;;;-0.99;75.58;99284.51;1768318;81;25595;-72
2022/01/09 03:37:43;;;;;;;69.45;31.65;;;;;;;-0.97;75.61;99287.70;1767695;81;27314;-72
2022/01/09 03:40:14;;;;;;;65.97;31.40;;;;;;;-0.96;75.51;99287.98;1767439;81;25646;-73
2022/01/09 03:42:41;;;;;;;64.90;31.33;;;;;;;-0.95;75.58;99281.62;1766618;81;25380;-73
2022/01/09 03:45:09;;;;;;;68.22;30.97;;;;;;;-0.92;75.65;99286.94;1767401;81;25683;-73
2022/01/09 03:47:35;;;;;;;64.07;31.17;;;;;;;-0.91;75.63;99284.03;1735864;81;25656;-73
2022/01/09 03:50:07;;;;;;;59.65;30.70;;;;;;;-0.92;75.56;99288.27;1760315;79;28157;-73
2022/01/09 03:52:36;;;;;;;69.40;31.80;;;;;;;-0.92;75.60;99290.38;1767404;81;25416;-73
2022/01/09 03:55:05;;;;;;;72.50;32.93;;;;;;;-0.92;75.66;99291.71;1767443;81;25438;-73
2022/01/09 03:57:31;;;;;;;;;;;;;;;-0.91;75.66;99302.61;1770002;81;25630;-73
2022/01/09 03:59:58;;;;;;;69.00;31.33;;;;;;;-0.91;75.65;99295.98;1767445;81;25390;-74
2022/01/09 04:02:24;;;;;;;68.50;31.52;;;;;;;-0.92;75.65;99297.02;1767425;81;27321;-73
2022/01/09 04:04:51;;;;;;;70.85;31.95;;;;;;;-0.91;75.70;99299.17;1767756;81;25729;-74
2022/01/09 04:07:17;;;;;;;65.05;31.62;;;;;;;-0.91;75.74;99298.63;1767525;80;25419;-73
2022/01/09 04:09:45;;;;;;;66.47;30.77;;;;;;;-0.92;75.70;99302.33;1773898;80;25825;-74
2022/01/09 04:12:17;;;;;;;68.95;32.08;;;;;;;-0.91;75.83;99298.63;1798147;79;25514;-74
2022/01/09 04:14:49;;;;;;;65.80;33.25;;;;;;;-0.92;75.75;99297.02;1776137;80;27559;-74
2022/01/09 04:17:25;;;;;;;60.05;29.92;;;;;;;-0.91;75.68;99295.98;1743680;82;25477;-73
2022/01/09 04:19:45;;;;;;;67.42;29.95;;;;;;;-0.92;75.69;99293.58;1760614;81;25508;-74
2022/01/09 04:22:12;;;;;;;68.30;31.70;;;;;;;-0.93;75.65;99300.75;1799702;79;25624;-74
2022/01/09 04:24:38;;;;;;;69.85;32.35;;;;;;;-0.94;75.76;99293.83;1743774;82;25440;-73
2022/01/09 04:27:05;;;;;;;68.42;32.15;;;;;;;-0.95;75.74;99298.89;1776381;80;27315;-73
2022/01/09 04:29:32;;;;;;;65.52;30.52;;;;;;;-0.97;75.80;99299.65;1776145;80;25719;-73
2022/01/09 04:31:58;;;;;;;71.35;31.70;;;;;;;-0.98;75.87;99295.41;1776271;80;25397;-74
2022/01/09 04:34:25;;;;;;;63.78;31.15;;;;;;;-1.01;75.81;99290.61;1798373;79;26305;-73
2022/01/09 04:36:51;;;;;;;72.92;32.05;;;;;;;-1.02;76.06;99285.02;1776532;80;25448;-73
2022/01/09 04:39:18;;;;;;;67.30;32.05;;;;;;;-1.05;76.00;99283.69;1743831;82;27921;-74
2022/01/09 04:41:44;;;;;;;68.55;33.10;;;;;;;-1.06;75.96;99281.30;1776415;80;25588;-74
2022/01/09 04:44:11;;;;;;;66.47;32.80;;;;;;;-1.07;76.19;99275.70;1776446;80;25377;-73
2022/01/09 04:46:43;;;;;;;70.35;33.90;;;;;;;-1.10;76.15;99274.91;1776430;80;25610;-73
2022/01/09 04:49:09;;;;;;;66.02;30.82;;;;;;;-1.14;76.35;99278.07;1776351;80;25573;-73
2022/01/09 04:51:35;;;;;;;70.05;32.88;;;;;;;-1.13;76.64;99280.19;1750262;80;28054;-73
2022/01/09 04:54:03;;;;;;;73.97;33.50;;;;;;;-1.15;76.58;99278.32;1776395;80;25589;-73
2022/01/09 04:56:31;;;;;;;69.62;32.75;;;;;;;-1.18;76.32;99282.81;1776335;80;25530;-73
2022/01/09 04:58:58;;;;;;;66.40;32.10;;;;;;;-1.24;76.27;99272.70;1776308;80;25607;-73
2022/01/09 05:01:24;;;;;;;65.80;31.62;;;;;;;-1.28;76.37;99267.61;1776462;80;25550;-73
2022/01/09 05:03:51;;;;;;;74.32;34.65;;;;;;;-1.30;76.38;99271.05;1776549;80;27380;-73
2022/01/09 05:06:18;;;;;;;66.47;31.55;;;;;;;-1.36;76.38;99260.95;1750970;80;25405;-73
2022/01/09 05:08:44;;;;;;;71.12;32.65;;;;;;;-1.37;76.34;99270.48;1776206;80;25565;-72
2022/01/09 05:11:12;;;;;;;69.55;33.50;;;;;;;-1.43;76.33;99258.23;1776093;80;25670;-73
2022/01/09 05:13:39;;;;;;;69.70;32.45;;;;;;;-1.49;76.18;99261.37;1776198;80;25400;-73
2022/01/09 05:16:06;;;;;;;67.42;33.40;;;;;;;-1.53;76.37;99263.74;1776033;80;27408;-73
2022/01/09 05:18:41;;;;;;;71.10;33.08;;;;;;;-1.57;76.54;99265.28;1776018;80;25619;-73
2022/01/09 05:21:00;;;;;;;76.42;34.75;;;;;;;-1.61;76.48;99268.19;1748244;80;25598;-73
2022/01/09 05:23:27;;;;;;;72.47;32.78;;;;;;;-1.64;76.34;99273.99;1776126;80;25637;-73
2022/01/09 05:25:53;;;;;;;73.07;33.08;;;;;;;-1.68;76.59;99266.81;1776263;80;25599;-74
2022/01/09 05:28:19;;;;;;;69.75;32.88;;;;;;;-1.71;76.70;99272.08;1776132;80;28083;-74
2022/01/09 05:30:46;;;;;;;74.53;34.20;;;;;;;-1.73;76.89;99273.66;1776119;80;25385;-73
2022/01/09 05:33:12;;;;;;;72.47;34.20;;;;;;;-1.74;77.02;99272.08;1776205;80;25378;-73
2022/01/09 05:35:39;;;;;;;75.65;33.98;;;;;;;-1.76;77.04;99275.48;1776394;80;26266;-73
2022/01/09 05:38:05;;;;;;;67.97;34.10;;;;;;;-1.78;77.07;99276.27;1776497;80;25553;-73
2022/01/09 05:40:32;;;;;;;77.08;34.35;;;;;;;-1.80;77.10;99278.38;1748033;80;29351;-73
2022/01/09 05:42:58;;;;;;;70.00;34.78;;;;;;;-1.82;77.17;99280.48;1776091;80;25907;-73
2022/01/09 05:45:26;;;;;;;79.58;34.67;;;;;;;-1.83;77.32;99286.83;1776181;80;25522;-73
2022/01/09 05:47:52;;;;;;;77.15;34.73;;;;;;;-1.85;77.29;99283.63;1776084;80;25636;-73
2022/01/09 05:50:19;;;;;;;77.67;34.90;;;;;;;-1.88;77.39;99279.62;1776148;80;25626;-73
2022/01/09 05:52:45;;;;;;;73.65;34.70;;;;;;;-1.87;77.47;99283.09;1776101;80;27421;-74
2022/01/09 05:55:11;;;;;;;80.85;36.35;;;;;;;-1.88;77.58;99281.48;1776014;80;25393;-74
2022/01/09 05:57:38;;;;;;;80.10;34.92;;;;;;;-1.88;77.62;99277.50;1776063;80;25562;-74
2022/01/09 06:00:06;;;;;;;73.85;34.27;;;;;;;-1.90;77.76;99272.98;1776005;80;25711;-74
2022/01/09 06:02:33;;;;;;;73.47;35.17;;;;;;;-1.89;77.67;99270.59;1776357;80;25470;-74
2022/01/09 06:05:00;;;;;;;73.40;32.85;;;;;;;-1.90;77.68;99268.47;1776678;80;27290;-73
2022/01/09 06:07:27;;;;;;;74.53;33.92;;;;;;;-1.91;77.44;99262.92;1776677;80;25389;-73
2022/01/09 06:09:53;;;;;;;76.45;33.83;;;;;;;-1.93;77.47;99264.20;1774342;80;25452;-73
2022/01/09 06:12:20;;;;;;;68.57;33.48;;;;;;;-1.96;77.53;99256.75;1794361;80;26270;-73
2022/01/09 06:14:46;;;;;;;67.45;34.03;;;;;;;-1.99;77.45;99262.05;1794513;80;25647;-73
2022/01/09 06:17:13;;;;;;;76.75;34.75;;;;;;;-2.03;77.54;99259.60;1794542;80;28145;-73
2022/01/09 06:19:39;;;;;;;72.60;33.63;;;;;;;-2.08;77.51;99260.38;1794516;79;25542;-73
2022/01/09 06:22:06;;;;;;;68.42;33.63;;;;;;;-2.13;77.56;99256.86;1794587;80;25473;-73
2022/01/09 06:24:32;;;;;;;69.97;32.60;;;;;;;-2.15;77.44;99253.66;1794541;80;25648;-73
2022/01/09 06:26:59;;;;;;;68.20;32.40;;;;;;;-2.19;77.47;99257.34;1794608;80;25395;-73
2022/01/09 06:29:25;;;;;;;74.60;33.10;;;;;;;-2.22;77.53;99257.05;1794563;79;27338;-73
2022/01/09 06:31:52;;;;;;;67.85;31.93;;;;;;;-2.27;77.28;99253.27;1794498;80;25449;-73
2022/01/09 06:34:19;;;;;;;68.50;34.45;;;;;;;-2.30;77.37;99253.80;1794898;80;25147;-73
2022/01/09 06:36:45;;;;;;;64.90;32.85;;;;;;;-2.33;77.42;99256.15;1795055;80;25631;-73
2022/01/09 06:39:12;;;;;;;73.30;33.60;;;;;;;-2.36;77.56;99255.31;1794743;80;25202;-73
2022/01/09 06:41:38;;;;;;;72.08;35.08;;;;;;;-2.39;77.60;99251.83;1794620;79;27353;-73
2022/01/09 06:44:05;;;;;;;66.42;32.70;;;;;;;-2.43;77.66;99252.86;1794476;80;25646;-73
2022/01/09 06:46:31;;;;;;;75.45;34.23;;;;;;;-2.43;77.64;99248.89;1794507;80;25535;-73
2022/01/09 06:48:58;;;;;;;72.85;34.18;;;;;;;-2.47;77.71;99254.39;1794524;80;25629;-73
2022/01/09 06:51:25;;;;;;;69.42;33.58;;;;;;;-2.50;77.59;99266.83;1794597;80;25369;-73
2022/01/09 06:53:51;;;;;;;69.65;33.35;;;;;;;-2.52;77.78;99264.92;1794538;79;27330;-72
2022/01/09 06:56:18;;;;;;;78.33;35.23;;;;;;;-2.56;77.76;99265.95;1794447;80;25365;-72
2022/01/09 06:58:45;;;;;;;74.82;33.98;;;;;;;-2.58;77.80;99266.72;1763610;80;25451;-72
2022/01/09 07:01:11;;;;;;;68.83;33.35;;;;;;;-2.60;77.76;99262.20;1794487;80;26094;-73
2022/01/09 07:03:38;;;;;;;68.20;32.13;;;;;;;-2.61;77.73;99264.56;1794698;79;25568;-73
2022/01/09 07:06:04;;;;;;;72.40;32.10;;;;;;;-2.63;77.88;99266.12;1764947;80;27332;-73
2022/01/09 07:08:33;;;;;;;68.15;33.67;;;;;;;-2.66;77.78;99260.00;1763570;80;25414;-73
2022/01/09 07:11:00;;;;;;;71.77;33.70;;;;;;;-2.66;77.92;99263.18;1760722;79;25401;-72
2022/01/09 07:13:27;;;;;;;68.85;33.08;;;;;;;-2.67;77.89;99261.59;1733013;82;25613;-73
2022/01/09 07:15:54;;;;;;;66.90;33.20;;;;;;;-2.67;77.93;99261.59;1762274;81;25586;-73
2022/01/09 07:18:20;;;;;;;71.37;34.18;;;;;;;-2.68;77.99;99258.66;1762250;81;27276;-73
2022/01/09 07:20:47;;;;;;;63.90;31.42;;;;;;;-2.68;78.05;99264.75;1762270;81;25535;-73
2022/01/09 07:23:14;;;;;;;66.97;32.00;;;;;;;-2.67;78.19;99258.95;1762329;81;25358;-73
2022/01/09 07:25:40;;;;;;;73.42;33.05;;;;;;;-2.65;78.10;99264.26;1762243;81;25615;-73
2022/01/09 07:28:07;;;;;;;71.57;33.30;;;;;;;-2.62;78.24;99264.30;1762332;81;25452;-73
2022/01/09 07:30:33;;;;;;;68.57;33.80;;;;;;;-2.60;78.27;99268.83;1762262;81;28059;-73
2022/01/09 07:33:00;;;;;;;78.35;34.80;;;;;;;-2.58;78.26;99268.05;1762201;81;25524;-73
2022/01/09 07:35:27;;;;;;;85.95;39.53;;;;;;;-2.57;78.38;99270.98;1762810;81;25172;-72
2022/01/09 07:37:54;;;;;;;72.17;34.55;;;;;;;-2.52;78.56;99271.04;1762363;81;26194;-72
2022/01/09 07:40:20;;;;;;;71.02;32.35;;;;;;;-2.46;78.65;99268.70;1762266;81;25548;-73
2022/01/09 07:42:48;;;;;;;67.97;32.67;;;;;;;-2.41;78.56;99265.33;1762258;81;27984;-73
2022/01/09 07:45:17;;;;;;;67.85;32.38;;;;;;;-2.39;78.39;99269.05;1734167;81;25713;-73
2022/01/09 07:47:43;;;;;;;50.37;23.63;;;;;;;-2.38;78.29;99269.30;1710445;81;25427;-73
2022/01/09 07:50:11;;;;;;;70.32;31.30;;;;;;;-2.34;78.35;99273.08;1762322;81;26169;-73
2022/01/09 07:52:39;;;;;;;75.25;34.05;;;;;;;-2.31;78.39;99273.91;1762398;81;25515;-73
2022/01/09 07:55:09;;;;;;;68.22;32.42;;;;;;;-2.25;78.78;99267.59;1762201;81;27869;-73
2022/01/09 07:57:36;;;;;;;61.85;31.35;;;;;;;-2.13;79.07;99266.12;1762065;81;25393;-74
2022/01/09 08:00:07;;;;;;;64.87;32.90;;;;;;;-1.99;79.26;99275.30;1734305;81;25420;-73
2022/01/09 08:02:33;;;;;;;67.67;33.63;;;;;;;-1.80;79.87;99269.09;1759547;81;25626;-73
2022/01/09 08:05:00;;;;;;;68.15;33.60;;;;;;;-1.59;79.81;99261.30;1762791;81;25377;-73
2022/01/09 08:07:27;;;;;;;75.60;35.30;;;;;;;-1.33;79.43;99262.27;1762692;81;28050;-73
2022/01/09 08:09:53;;;;;;;72.35;35.15;;;;;;;-1.10;79.19;99260.31;1773488;79;25609;-73
2022/01/09 08:12:20;;;;;;;68.30;33.70;;;;;;;-0.87;79.32;99254.59;1803202;79;25594;-73
2022/01/09 08:14:46;;;;;;;68.17;34.98;;;;;;;-0.62;78.60;99257.08;1803088;79;25624;-73
2022/01/09 08:17:14;;;;;;;67.75;34.80;;;;;;;-0.36;78.85;99263.80;1803141;79;25460;-73
2022/01/09 08:19:41;;;;;;;67.75;35.20;;;;;;;-0.05;77.93;99269.46;1776164;79;28019;-74
2022/01/09 08:22:08;;;;;;;65.80;33.90;;;;;;;0.25;77.87;99272.41;1803119;79;25541;-74
2022/01/09 08:24:38;;;;;;;68.12;34.30;;;;;;;0.64;77.67;99274.53;1803185;79;25573;-74
2022/01/09 08:27:07;;;;;;;66.92;33.48;;;;;;;0.90;77.23;99273.95;1803084;79;25679;-73
2022/01/09 08:29:34;;;;;;;58.75;33.55;;;;;;;1.23;75.86;99275.20;1803125;79;25621;-73
2022/01/09 08:32:02;;;;;;;68.83;34.75;;;;;;;1.41;75.68;99276.45;1803137;79;27330;-73
2022/01/09 08:34:28;;;;;;;74.10;35.88;;;;;;;1.83;75.92;99277.85;1803197;79;25402;-73
2022/01/09 08:36:55;;;;;;;69.00;35.73;;;;;;;2.24;76.63;99272.25;1776529;79;25565;-73
2022/01/09 08:39:21;;;;;;;71.75;36.83;;;;;;;2.69;75.19;99276.69;1803231;79;26175;-74
2022/01/09 08:41:48;;;;;;;67.27;34.48;;;;;;;2.97;73.78;99282.56;1776158;79;25420;-73
2022/01/09 08:44:14;;;;;;;69.40;35.60;;;;;;;3.35;73.13;99277.36;1803142;79;28010;-73
2022/01/09 08:46:41;;;;;;;69.17;35.90;;;;;;;3.65;73.50;99276.70;1803131;79;25610;-73
2022/01/09 08:49:07;;;;;;;71.35;36.40;;;;;;;4.16;73.26;99285.13;1799361;79;25456;-74
2022/01/09 08:51:34;;;;;;;65.57;35.25;;;;;;;4.50;70.89;99282.17;1787891;78;25637;-75
2022/01/09 08:54:01;;;;;;;66.70;34.35;;;;;;;4.63;68.82;99287.30;1792403;79;25671;-74
2022/01/09 08:56:29;;;;;;;61.90;34.40;;;;;;;4.58;68.20;99285.52;1775594;80;27283;-75
2022/01/09 08:58:57;;;;;;;64.55;34.30;;;;;;;4.94;69.85;99282.75;1747155;80;26251;-75
2022/01/09 09:01:24;;;;;;;65.57;33.13;;;;;;;5.14;68.33;99282.40;1746743;80;25503;-76
2022/01/09 09:03:51;;;;;;;60.73;34.08;;;;;;;5.20;65.23;99301.30;1775779;80;25662;-75
2022/01/09 09:06:18;;;;;;;58.23;33.10;;;;;;;5.07;65.00;99290.02;1776793;80;25296;-76
2022/01/09 09:08:44;;;;;;;64.55;34.13;;;;;;;5.00;64.82;99286.94;1776613;79;27327;-76
2022/01/09 09:11:12;;;;;;;61.10;33.80;;;;;;;5.01;65.74;99288.53;1795390;79;25654;-77
2022/01/09 09:13:39;;;;;;;62.03;33.70;;;;;;;5.20;65.21;99288.45;1816349;79;25799;-76
2022/01/09 09:16:06;;;;;;;64.03;34.83;;;;;;;5.20;63.89;99291.91;1816242;79;26259;-77
2022/01/09 09:18:34;;;;;;;59.30;35.17;;;;;;;5.17;63.95;99286.36;1763052;79;25410;-76
2022/01/09 09:21:00;;;;;;;57.90;34.05;;;;;;;5.48;64.64;99289.22;1764092;81;27036;-78
2022/01/09 09:23:27;;;;;;;59.88;34.23;;;;;;;5.54;63.74;99284.02;1816242;79;25428;-77
2022/01/09 09:25:54;;;;;;;58.55;33.88;;;;;;;5.50;63.58;99290.27;1816412;79;25530;-77
2022/01/09 09:28:21;;;;;;;60.43;34.13;;;;;;;5.76;63.69;99285.97;1816268;78;26560;-77
2022/01/09 09:30:47;;;;;;;62.43;34.27;;;;;;;6.08;64.40;99286.11;1816266;78;25573;-74
2022/01/09 09:33:14;;;;;;;63.13;33.75;;;;;;;6.19;62.87;99277.30;1816200;79;27318;-73
2022/01/09 09:35:40;;;;;;;58.90;34.73;;;;;;;6.33;62.59;99273.45;1816421;79;25582;-73
2022/01/09 09:38:07;;;;;;;57.10;34.13;;;;;;;6.50;62.46;99280.84;1816598;79;25384;-74
2022/01/09 09:40:33;;;;;;;58.65;34.95;;;;;;;6.82;62.78;99275.48;1816217;79;25646;-75
2022/01/09 09:43:00;;;;;;;60.10;34.63;;;;;;;7.32;63.74;99279.27;1815927;78;25393;-75
2022/01/09 09:45:28;;;;;;;54.13;32.83;;;;;;;7.83;62.02;99282.36;1816252;79;27294;-74
2022/01/09 09:47:55;;;;;;;61.60;36.77;;;;;;;7.75;58.26;99279.13;1816227;78;25768;-74
2022/01/09 09:50:21;;;;;;;68.83;36.65;;;;;;;7.53;59.18;99274.09;1789290;79;25566;-74
2022/01/09 09:52:49;;;;;;;63.10;36.75;;;;;;;7.72;60.06;99277.84;1816388;79;25683;-73
2022/01/09 09:55:18;;;;;;;63.15;36.93;;;;;;;7.90;60.02;99275.98;1811671;79;25503;-73
2022/01/09 09:57:46;;;;;;;60.38;36.30;;;;;;;8.38;61.23;99271.53;1797416;79;27549;-74
2022/01/09 10:00:19;;;;;;;60.12;35.85;;;;;;;8.93;60.86;99280.23;1797301;79;25619;-74
2022/01/09 10:02:53;;;;;;;65.57;38.40;;;;;;;9.58;60.94;99276.62;1797312;79;25539;-74
2022/01/09 10:05:23;;;;;;;57.83;36.05;;;;;;;10.16;59.58;99274.14;1797142;79;25661;-71
2022/01/09 10:07:52;;;;;;;57.45;35.30;;;;;;;10.55;58.93;99273.42;1771049;79;25723;-72
2022/01/09 10:10:23;;;;;;;79.12;48.48;;;;;;;10.89;56.03;99274.19;1797390;79;28378;-71
2022/01/09 10:12:50;;;;;;;52.67;33.80;;;;;;;11.12;56.75;99274.57;1796005;79;25649;-71
2022/01/09 10:15:20;;;;;;;48.95;34.03;;;;;;;11.20;53.34;99270.40;1797304;79;25401;-72
2022/01/09 10:17:50;;;;;;;50.25;32.75;;;;;;;11.28;54.96;99278.74;1797199;79;25630;-71
2022/01/09 10:20:24;;;;;;;44.18;31.85;;;;;;;11.50;53.68;99278.85;1797410;79;25549;-71
2022/01/09 10:22:54;;;;;;;50.55;32.10;;;;;;;11.46;53.39;99271.16;1797338;79;27314;-72
2022/01/09 10:25:36;;;;;;;52.10;34.35;;;;;;;11.88;53.65;99270.31;1797348;79;25675;-71
2022/01/09 10:28:16;;;;;;;49.13;32.83;;;;;;;12.45;54.05;99272.53;1797449;79;25391;-71
2022/01/09 10:30:47;;;;;;;44.48;30.17;;;;;;;12.63;50.49;99270.31;1797293;79;25660;-71
2022/01/09 10:33:18;;;;;;;49.58;33.23;;;;;;;12.38;51.14;99268.83;1797303;79;25645;-70
2022/01/09 10:35:47;;;;;;;50.05;32.95;;;;;;;12.82;51.85;99268.28;1797385;79;28314;-71
2022/01/09 10:38:23;;;;;;;49.05;30.72;;;;;;;13.05;50.44;99267.09;1797611;79;29608;-70
2022/01/09 10:41:03;;;;;;;53.08;32.25;;;;;;;13.09;50.50;99260.39;1797472;79;25533;-71
2022/01/09 10:43:36;;;;;;;51.92;33.53;;;;;;;13.50;49.90;99258.84;1797601;79;25639;-70
2022/01/09 10:46:07;;;;;;;51.02;34.27;;;;;;;13.60;49.33;99258.30;1797553;79;25690;-71
2022/01/09 10:48:40;;;;;;;49.77;34.80;;;;;;;13.99;49.76;99258.36;1730468;82;27238;-70
2022/01/09 10:51:11;;;;;;;48.70;32.35;;;;;;;14.22;48.74;99260.36;1730470;81;25693;-69
2022/01/09 10:53:42;;;;;;;46.40;31.68;;;;;;;14.42;48.81;99255.15;1739420;81;25290;-69
2022/01/09 10:56:21;;;;;;;45.38;31.02;;;;;;;14.57;47.60;99251.55;1728715;82;25862;-69
2022/01/09 10:58:52;;;;;;;43.52;30.30;;;;;;;14.47;46.80;99249.41;1729927;82;25729;-70
2022/01/09 11:01:25;;;;;;;45.78;32.42;;;;;;;14.33;46.70;99251.27;1704703;82;27446;-70
2022/01/09 11:04:01;;;;;;;47.62;32.10;;;;;;;14.54;46.92;99254.17;1729661;82;25771;-70
2022/01/09 11:06:31;;;;;;;48.90;31.33;;;;;;;14.97;46.74;99255.56;1730086;82;25739;-69
2022/01/09 11:09:00;;;;;;;40.73;29.12;;;;;;;14.96;45.84;99252.03;1729839;82;26920;-70
2022/01/09 11:14:00;;;;;;;48.48;32.45;;;;;;;15.16;45.51;99245.94;1742376;81;27337;-70
2022/01/09 11:16:37;;;;;;;42.50;31.70;;;;;;;15.29;45.28;99240.50;1738563;82;25656;-69
2022/01/09 11:19:13;;;;;;;39.00;29.10;;;;;;;15.47;45.10;99232.58;1750205;80;26365;-69
2022/01/09 11:21:55;;;;;;;46.20;30.77;;;;;;;15.40;43.01;99232.48;1769604;81;25637;-69
2022/01/09 11:24:32;;;;;;;44.23;30.37;;;;;;;15.32;44.40;99230.80;1794950;79;25569;-70
2022/01/09 11:27:39;;;;;;;46.28;30.12;;;;;;;15.25;43.74;99227.39;1763330;81;27223;-70